createdAt,value
2023-04-16T00:09:31.550Z,3.95
2023-04-16T00:13:52.350Z,3.84
2023-04-16T00:18:19.803Z,3.77
2023-04-16T00:22:47.992Z,3.69
2023-04-16T00:26:54.153Z,3.62
2023-04-16T00:31:02.432Z,3.57
2023-04-16T00:35:31.120Z,3.52
2023-04-16T00:39:35.314Z,3.46
2023-04-16T00:44:01.805Z,3.42
2023-04-16T00:48:10.345Z,3.38
2023-04-16T00:52:38.244Z,3.29
2023-04-16T00:57:09.782Z,3.21
2023-04-16T01:01:27.342Z,3.17
2023-04-16T01:05:46.055Z,3.20
2023-04-16T01:09:50.469Z,3.25
2023-04-16T01:14:11.744Z,3.31
2023-04-16T01:18:43.824Z,3.39
2023-04-16T01:22:51.895Z,3.43
2023-04-16T01:27:23.931Z,3.45
2023-04-16T01:32:04.181Z,3.43
2023-04-16T01:36:29.415Z,3.36
2023-04-16T01:40:50.535Z,3.27
2023-04-16T01:45:08.139Z,3.19
2023-04-16T01:49:14.253Z,3.10
2023-04-16T01:53:19.580Z,3.01
2023-04-16T01:57:31.581Z,2.93
2023-04-16T02:01:43.838Z,2.88
2023-04-16T02:05:55.787Z,2.84
2023-04-16T02:10:24.535Z,2.80
2023-04-16T02:14:49.658Z,2.79
2023-04-16T02:19:29.426Z,2.79
2023-04-16T02:24:01.706Z,2.78
2023-04-16T02:28:29.760Z,2.74
2023-04-16T02:33:04.394Z,2.72
2023-04-16T02:37:37.096Z,2.68
2023-04-16T02:42:05.149Z,2.61
2023-04-16T02:46:37.504Z,2.55
2023-04-16T02:51:02.750Z,2.49
2023-04-16T02:55:30.830Z,2.45
2023-04-16T03:00:03.127Z,2.44
2023-04-16T03:08:17.155Z,2.54
2023-04-16T03:12:30.762Z,2.53
2023-04-16T03:16:56.065Z,2.54
2023-04-16T03:21:35.700Z,2.53
2023-04-16T03:25:42.639Z,2.54
2023-04-16T03:30:02.657Z,2.51
2023-04-16T03:34:23.789Z,2.49
2023-04-16T03:38:49.814Z,2.51
2023-04-16T03:43:33.749Z,2.53
2023-04-16T03:48:03.294Z,2.57
2023-04-16T03:52:13.879Z,2.62
2023-04-16T03:56:46.833Z,2.69
2023-04-16T04:01:18.617Z,2.79
2023-04-16T04:05:55.196Z,2.88
2023-04-16T04:10:37.917Z,3.32
2023-04-16T04:15:03.011Z,3.74
2023-04-16T04:19:09.026Z,4.00
2023-04-16T04:23:30.711Z,4.73
2023-04-16T04:27:40.398Z,5.41
2023-04-16T04:32:09.956Z,6.07
2023-04-16T04:36:39.371Z,6.49
2023-04-16T04:41:00.496Z,7.07
2023-04-16T04:45:04.717Z,7.61
2023-04-16T04:49:33.126Z,7.84
2023-04-16T04:53:52.397Z,7.63
2023-04-16T04:57:56.510Z,7.48
2023-04-16T05:02:05.115Z,7.52
2023-04-16T05:06:13.344Z,7.59
2023-04-16T05:10:20.940Z,7.74
2023-04-16T05:14:51.804Z,7.98
2023-04-16T05:18:50.895Z,8.22
2023-04-16T05:22:55.260Z,8.43
2023-04-16T05:27:19.621Z,8.65
2023-04-16T05:39:37.171Z,9.35
2023-04-16T05:43:47.097Z,9.61
2023-04-16T05:47:59.275Z,9.71
2023-04-16T05:52:18.987Z,9.79
2023-04-16T05:56:15.423Z,10.04
2023-04-16T06:00:41.314Z,10.18
2023-04-16T06:04:47.756Z,10.46
2023-04-16T06:08:26.438Z,10.78
2023-04-16T06:12:10.729Z,10.95
2023-04-16T06:15:45.572Z,11.03
2023-04-16T06:20:02.554Z,11.26
2023-04-16T06:23:12.260Z,11.50
2023-04-16T06:27:13.711Z,11.38
2023-04-16T06:30:24.550Z,11.26
2023-04-16T06:33:35.213Z,11.02
2023-04-16T06:37:08.361Z,10.95
2023-04-16T06:40:26.097Z,10.88
2023-04-16T06:44:22.030Z,10.81
2023-04-16T06:48:16.282Z,10.99
2023-04-16T06:51:36.427Z,11.11
2023-04-16T06:54:42.401Z,11.23
2023-04-16T06:57:49.520Z,11.41
2023-04-16T07:01:13.016Z,11.73
2023-04-16T07:08:53.225Z,11.98
2023-04-16T07:12:17.940Z,12.05
2023-04-16T07:15:23.845Z,12.07
2023-04-16T07:18:33.123Z,11.97
2023-04-16T07:21:45.139Z,11.97
2023-04-16T07:25:02.412Z,12.12
2023-04-16T07:28:28.743Z,11.82
2023-04-16T07:31:53.098Z,11.94
2023-04-16T07:34:57.260Z,12.16
2023-04-16T07:38:31.491Z,12.23
2023-04-16T07:42:02.828Z,12.18
2023-04-16T07:45:28.713Z,12.06
2023-04-16T07:48:49.676Z,12.23
2023-04-16T07:52:13.856Z,12.30
2023-04-16T07:55:19.007Z,12.18
2023-04-16T07:58:23.717Z,12.12
2023-04-16T08:01:36.152Z,12.26
2023-04-16T08:08:30.809Z,12.25
2023-04-16T08:11:51.468Z,12.31
2023-04-16T08:15:20.266Z,12.32
2023-04-16T08:18:31.662Z,12.42
2023-04-16T08:21:35.669Z,12.56
2023-04-16T08:24:38.749Z,12.69
2023-04-16T08:27:43.900Z,12.94
2023-04-16T08:30:46.898Z,13.11
2023-04-16T08:38:08.418Z,13.23
2023-04-16T08:41:15.966Z,13.34
2023-04-16T08:44:32.249Z,13.60
2023-04-16T08:47:39.158Z,13.79
2023-04-16T08:50:55.650Z,13.93
2023-04-16T08:54:04.358Z,14.24
2023-04-16T08:57:19.850Z,14.73
2023-04-16T09:00:42.079Z,15.24
2023-04-16T09:03:49.290Z,15.73
2023-04-16T09:07:10.283Z,15.85
2023-04-16T09:10:15.024Z,15.91
2023-04-16T09:13:22.927Z,15.81
2023-04-16T09:16:43.277Z,15.42
2023-04-16T09:20:06.578Z,15.01
2023-04-16T09:23:11.530Z,14.74
2023-04-16T09:26:23.286Z,14.77
2023-04-16T09:29:56.435Z,14.69
2023-04-16T09:33:25.339Z,14.85
2023-04-16T09:36:32.417Z,15.16
2023-04-16T09:39:36.303Z,15.47
2023-04-16T09:42:41.256Z,15.38
2023-04-16T09:45:52.040Z,15.12
2023-04-16T09:49:10.564Z,15.32
2023-04-16T09:52:43.423Z,15.71
2023-04-16T09:55:47.649Z,15.94
2023-04-16T09:58:51.152Z,16.20
2023-04-16T10:02:15.669Z,16.46
2023-04-16T10:05:28.088Z,16.68
2023-04-16T10:08:31.482Z,17.02
2023-04-16T10:11:35.012Z,17.27
2023-04-16T10:14:46.861Z,17.28
2023-04-16T10:17:53.125Z,16.82
2023-04-16T10:20:57.605Z,16.32
2023-04-16T10:24:00.717Z,16.00
2023-04-16T10:27:04.128Z,15.93
2023-04-16T10:30:09.868Z,16.01
2023-04-16T10:33:15.096Z,16.06
2023-04-16T10:36:43.076Z,16.43
2023-04-16T10:39:53.628Z,16.64
2023-04-16T10:43:01.165Z,16.55
2023-04-16T10:46:27.172Z,16.72
2023-04-16T10:49:32.168Z,17.05
2023-04-16T10:52:35.473Z,17.27
2023-04-16T10:56:17.530Z,17.15
2023-04-16T10:59:36.262Z,16.75
2023-04-16T11:03:08.892Z,16.92
2023-04-16T11:06:32.279Z,16.88
2023-04-16T11:09:59.763Z,17.33
2023-04-16T11:13:11.272Z,17.53
2023-04-16T11:16:42.931Z,17.18
2023-04-16T11:19:48.508Z,17.33
2023-04-16T11:22:58.775Z,17.26
2023-04-16T11:26:28.243Z,17.29
2023-04-16T11:29:32.535Z,17.55
2023-04-16T11:32:55.925Z,17.82
2023-04-16T11:36:01.817Z,18.17
2023-04-16T11:39:05.689Z,18.34
2023-04-16T11:42:23.258Z,18.46
2023-04-16T11:45:34.799Z,18.64
2023-04-16T11:49:28.011Z,18.58
2023-04-16T11:52:36.545Z,18.33
2023-04-16T11:55:57.446Z,18.12
2023-04-16T12:00:02.532Z,17.98
2023-04-16T12:03:47.443Z,17.79
2023-04-16T12:07:19.019Z,17.62
2023-04-16T12:10:35.313Z,17.53
2023-04-16T12:14:43.596Z,17.50
2023-04-16T12:18:27.430Z,17.78
2023-04-16T12:21:42.335Z,17.73
2023-04-16T12:24:56.783Z,17.85
2023-04-16T12:28:28.850Z,17.72
2023-04-16T12:31:40.792Z,17.83
2023-04-16T12:35:12.468Z,17.78
2023-04-16T12:38:56.886Z,17.47
2023-04-16T12:42:10.948Z,17.22
2023-04-16T12:45:26.931Z,17.17
2023-04-16T12:48:34.700Z,17.22
2023-04-16T12:52:04.530Z,16.81
2023-04-16T12:55:10.948Z,16.56
2023-04-16T12:58:54.347Z,16.63
2023-04-16T13:02:17.796Z,16.64
2023-04-16T13:05:45.797Z,17.02
2023-04-16T13:17:31.404Z,17.89
2023-04-16T13:20:39.357Z,17.74
2023-04-16T13:23:52.033Z,17.64
2023-04-16T13:27:05.193Z,17.59
2023-04-16T13:30:33.668Z,17.59
2023-04-16T13:34:26.105Z,17.45
2023-04-16T13:37:35.138Z,17.40
2023-04-16T13:40:42.774Z,17.25
2023-04-16T13:43:50.515Z,17.23
2023-04-16T13:47:03.056Z,17.34
2023-04-16T13:50:13.736Z,17.24
2023-04-16T13:53:42.111Z,17.05
2023-04-16T13:57:09.654Z,16.95
2023-04-16T14:00:28.317Z,17.07
2023-04-16T14:03:55.135Z,17.23
2023-04-16T14:07:39.959Z,17.29
2023-04-16T14:12:01.476Z,17.05
2023-04-16T14:15:45.261Z,16.80
2023-04-16T14:18:52.847Z,16.84
2023-04-16T14:22:18.489Z,16.95
2023-04-16T14:25:25.456Z,16.94
2023-04-16T14:28:47.946Z,16.95
2023-04-16T14:32:05.408Z,16.95
2023-04-16T14:35:35.122Z,17.01
2023-04-16T14:39:25.124Z,17.12
2023-04-16T14:42:30.394Z,17.19
2023-04-16T14:46:55.835Z,17.30
2023-04-16T14:50:08.563Z,17.27
2023-04-16T14:53:17.831Z,17.34
2023-04-16T14:56:28.805Z,17.39
2023-04-16T15:00:25.146Z,17.35
2023-04-16T15:04:57.331Z,17.32
2023-04-16T15:08:46.839Z,17.30
2023-04-16T15:12:10.899Z,17.18
2023-04-16T15:15:40.695Z,17.09
2023-04-16T15:19:22.859Z,17.08
2023-04-16T15:23:06.210Z,17.04
2023-04-16T15:26:11.753Z,17.16
2023-04-16T15:30:21.955Z,17.16
2023-04-16T15:33:40.232Z,17.06
2023-04-16T15:37:01.319Z,16.63
2023-04-16T15:40:07.956Z,16.65
2023-04-16T15:43:48.312Z,16.71
2023-04-16T15:47:25.851Z,16.77
2023-04-16T15:50:31.976Z,16.69
2023-04-16T15:54:19.441Z,16.67
2023-04-16T15:57:43.448Z,16.62
2023-04-16T16:05:09.128Z,16.48
2023-04-16T16:08:15.524Z,16.22
2023-04-16T16:11:44.463Z,16.12
2023-04-16T16:15:36.097Z,16.10
2023-04-16T16:18:55.043Z,16.02
2023-04-16T16:22:03.485Z,15.99
2023-04-16T16:25:37.979Z,15.93
2023-04-16T16:28:49.418Z,15.79
2023-04-16T16:32:41.002Z,15.69
2023-04-16T16:36:25.715Z,15.50
2023-04-16T16:40:25.994Z,15.33
2023-04-16T16:43:51.617Z,15.20
2023-04-16T16:47:08.257Z,15.07
2023-04-16T16:50:56.190Z,14.90
2023-04-16T16:54:22.649Z,14.72
2023-04-16T16:57:29.694Z,14.56
2023-04-16T17:00:33.075Z,14.38
2023-04-16T17:08:07.597Z,14.08
2023-04-16T17:11:28.106Z,13.88
2023-04-16T17:15:12.575Z,13.71
2023-04-16T17:18:34.862Z,13.54
2023-04-16T17:22:02.953Z,13.34
2023-04-16T17:26:16.236Z,13.10
2023-04-16T17:30:47.364Z,12.86
2023-04-16T17:34:37.125Z,12.67
2023-04-16T17:38:21.185Z,12.45
2023-04-16T17:42:35.509Z,12.24
2023-04-16T17:46:46.450Z,12.04
2023-04-16T17:51:21.874Z,11.84
2023-04-16T17:55:21.170Z,11.69
2023-04-16T17:59:07.495Z,11.62
2023-04-16T18:02:56.759Z,11.55
2023-04-16T18:06:54.824Z,11.49
2023-04-16T18:11:02.527Z,11.44
2023-04-16T18:15:11.750Z,11.37
2023-04-16T18:19:16.547Z,11.31
2023-04-16T18:23:48.120Z,11.18
2023-04-16T18:28:13.687Z,11.09
2023-04-16T18:32:06.789Z,11.03
2023-04-16T18:36:03.636Z,10.98
2023-04-16T18:40:08.319Z,10.94
2023-04-16T18:44:20.670Z,10.87
2023-04-16T18:48:34.622Z,10.81
2023-04-16T18:52:59.709Z,10.76
2023-04-16T18:56:47.803Z,10.74
2023-04-16T19:00:54.415Z,10.70
2023-04-16T19:05:11.554Z,10.64
2023-04-16T19:09:15.142Z,10.57
2023-04-16T19:13:21.639Z,10.49
2023-04-16T19:17:34.935Z,10.38
2023-04-16T19:22:01.850Z,10.29
2023-04-16T19:26:25.779Z,10.21
2023-04-16T19:30:48.594Z,10.19
2023-04-16T19:34:54.500Z,10.14
2023-04-16T19:39:16.705Z,10.05
2023-04-16T19:43:32.547Z,9.93
2023-04-16T19:47:56.872Z,9.83
2023-04-16T19:52:03.610Z,9.77
2023-04-16T19:56:11.964Z,9.69
2023-04-16T20:00:32.677Z,9.59
2023-04-16T20:04:53.602Z,9.46
2023-04-16T20:08:51.576Z,9.31
2023-04-16T20:13:17.404Z,9.12
2023-04-16T20:17:24.907Z,8.93
2023-04-16T20:21:49.365Z,8.75
2023-04-16T20:25:38.427Z,8.59
2023-04-16T20:30:09.972Z,8.43
2023-04-16T20:34:52.304Z,8.21
2023-04-16T20:44:11.856Z,7.80
2023-04-16T20:48:36.841Z,7.58
2023-04-16T20:52:41.512Z,7.40
2023-04-16T20:57:10.551Z,7.21
2023-04-16T21:01:17.039Z,7.07
2023-04-16T21:05:58.565Z,6.92
2023-04-16T21:10:30.708Z,6.78
2023-04-16T21:14:58.225Z,6.65
2023-04-16T21:19:02.426Z,6.53
2023-04-16T21:23:07.296Z,6.42
2023-04-16T21:27:33.048Z,6.34
2023-04-16T21:32:21.276Z,6.27
2023-04-16T21:36:45.390Z,6.17
2023-04-16T21:40:45.201Z,6.09
2023-04-16T21:45:10.504Z,6.02
2023-04-16T21:49:48.966Z,5.96
2023-04-16T21:54:14.944Z,5.91
2023-04-16T21:58:34.221Z,5.88
2023-04-16T22:02:40.415Z,5.85
2023-04-16T22:07:20.662Z,5.86
2023-04-16T22:11:45.363Z,5.84
2023-04-16T22:16:09.432Z,5.81
2023-04-16T22:20:16.719Z,5.77
2023-04-16T22:25:00.462Z,5.76
2023-04-16T22:29:23.812Z,5.72
2023-04-16T22:33:44.343Z,5.66
2023-04-16T22:37:42.878Z,5.58
2023-04-16T22:42:11.203Z,5.49
2023-04-16T22:46:20.896Z,5.38
2023-04-16T22:50:49.462Z,5.26
2023-04-16T22:55:18.507Z,5.13
2023-04-16T22:59:23.235Z,5.05
2023-04-16T23:03:45.698Z,4.94
2023-04-16T23:08:29.293Z,4.83
2023-04-16T23:12:33.871Z,4.76
2023-04-16T23:16:57.856Z,4.71
2023-04-16T23:21:02.092Z,4.68
2023-04-16T23:25:38.887Z,4.60
2023-04-16T23:30:07.689Z,4.50
2023-04-16T23:33:46.487Z,4.41
2023-04-16T23:38:11.118Z,4.30
2023-04-16T23:42:35.452Z,4.20
2023-04-16T23:47:00.240Z,4.10
2023-04-16T23:51:44.652Z,4.04
2023-04-16T23:55:57.886Z,4.01
